sensor_id;sensor_type;location;lat;lon;timestamp;P1;durP1;ratioP1;P2;durP2;ratioP2
61685;SDS011;47592;45.904;8.978;2023-02-28T00:00:46;9.90;;;5.97;;
61685;SDS011;47592;45.904;8.978;2023-02-28T00:03:12;8.98;;;5.07;;
61685;SDS011;47592;45.904;8.978;2023-02-28T00:05:37;9.27;;;4.88;;
61685;SDS011;47592;45.904;8.978;2023-02-28T00:08:03;9.07;;;5.78;;
61685;SDS011;47592;45.904;8.978;2023-02-28T00:10:29;9.02;;;5.13;;
61685;SDS011;47592;45.904;8.978;2023-02-28T00:12:58;8.20;;;5.30;;
61685;SDS011;47592;45.904;8.978;2023-02-28T00:15:25;8.20;;;4.95;;
61685;SDS011;47592;45.904;8.978;2023-02-28T00:17:51;8.05;;;5.10;;
61685;SDS011;47592;45.904;8.978;2023-02-28T00:20:17;8.00;;;5.07;;
61685;SDS011;47592;45.904;8.978;2023-02-28T00:22:44;7.82;;;5.13;;
61685;SDS011;47592;45.904;8.978;2023-02-28T00:25:12;7.93;;;5.05;;
61685;SDS011;47592;45.904;8.978;2023-02-28T00:27:39;8.95;;;5.40;;
61685;SDS011;47592;45.904;8.978;2023-02-28T00:30:05;8.65;;;5.53;;
61685;SDS011;47592;45.904;8.978;2023-02-28T00:32:32;10.50;;;6.25;;
61685;SDS011;47592;45.904;8.978;2023-02-28T00:34:59;9.05;;;5.60;;
61685;SDS011;47592;45.904;8.978;2023-02-28T00:37:24;9.10;;;5.88;;
61685;SDS011;47592;45.904;8.978;2023-02-28T00:39:50;8.40;;;5.32;;
61685;SDS011;47592;45.904;8.978;2023-02-28T00:42:15;11.10;;;6.20;;
61685;SDS011;47592;45.904;8.978;2023-02-28T00:44:41;9.50;;;5.88;;
61685;SDS011;47592;45.904;8.978;2023-02-28T00:47:06;8.77;;;6.00;;
61685;SDS011;47592;45.904;8.978;2023-02-28T00:49:32;9.40;;;6.00;;
61685;SDS011;47592;45.904;8.978;2023-02-28T00:51:57;10.65;;;6.18;;
61685;SDS011;47592;45.904;8.978;2023-02-28T00:54:23;8.13;;;5.75;;
61685;SDS011;47592;45.904;8.978;2023-02-28T00:56:49;9.38;;;6.10;;
61685;SDS011;47592;45.904;8.978;2023-02-28T00:59:15;13.32;;;6.13;;
61685;SDS011;47592;45.904;8.978;2023-02-28T01:01:41;9.32;;;6.18;;
61685;SDS011;47592;45.904;8.978;2023-02-28T01:04:07;9.32;;;5.95;;
61685;SDS011;47592;45.904;8.978;2023-02-28T01:06:33;9.57;;;6.10;;
61685;SDS011;47592;45.904;8.978;2023-02-28T01:08:59;9.25;;;6.15;;
61685;SDS011;47592;45.904;8.978;2023-02-28T01:11:24;9.65;;;6.00;;
61685;SDS011;47592;45.904;8.978;2023-02-28T01:13:50;10.30;;;6.45;;
61685;SDS011;47592;45.904;8.978;2023-02-28T01:16:19;9.23;;;6.13;;
61685;SDS011;47592;45.904;8.978;2023-02-28T01:18:44;11.18;;;6.20;;
61685;SDS011;47592;45.904;8.978;2023-02-28T01:21:11;9.75;;;6.50;;
61685;SDS011;47592;45.904;8.978;2023-02-28T01:23:49;9.77;;;6.70;;
61685;SDS011;47592;45.904;8.978;2023-02-28T01:26:19;11.68;;;6.80;;
61685;SDS011;47592;45.904;8.978;2023-02-28T01:28:45;10.43;;;6.60;;
61685;SDS011;47592;45.904;8.978;2023-02-28T01:31:13;9.75;;;6.70;;
61685;SDS011;47592;45.904;8.978;2023-02-28T01:33:42;9.70;;;6.60;;
61685;SDS011;47592;45.904;8.978;2023-02-28T01:36:14;9.93;;;6.82;;
61685;SDS011;47592;45.904;8.978;2023-02-28T01:38:42;9.57;;;6.43;;
61685;SDS011;47592;45.904;8.978;2023-02-28T01:41:08;11.27;;;7.07;;
61685;SDS011;47592;45.904;8.978;2023-02-28T01:46:09;9.88;;;6.95;;
61685;SDS011;47592;45.904;8.978;2023-02-28T01:48:39;11.05;;;7.55;;
61685;SDS011;47592;45.904;8.978;2023-02-28T01:51:11;9.80;;;6.60;;
61685;SDS011;47592;45.904;8.978;2023-02-28T01:53:53;10.00;;;6.72;;
61685;SDS011;47592;45.904;8.978;2023-02-28T01:59:35;9.13;;;6.35;;
61685;SDS011;47592;45.904;8.978;2023-02-28T02:02:16;9.80;;;6.80;;
61685;SDS011;47592;45.904;8.978;2023-02-28T02:04:56;11.45;;;7.38;;
61685;SDS011;47592;45.904;8.978;2023-02-28T02:07:26;11.23;;;7.38;;
61685;SDS011;47592;45.904;8.978;2023-02-28T02:10:02;12.68;;;7.57;;
61685;SDS011;47592;45.904;8.978;2023-02-28T02:15:31;11.45;;;7.32;;
61685;SDS011;47592;45.904;8.978;2023-02-28T02:18:20;11.82;;;7.65;;
61685;SDS011;47592;45.904;8.978;2023-02-28T02:21:02;11.30;;;6.68;;
61685;SDS011;47592;45.904;8.978;2023-02-28T02:26:32;10.73;;;6.50;;
61685;SDS011;47592;45.904;8.978;2023-02-28T02:32:28;10.35;;;7.35;;
61685;SDS011;47592;45.904;8.978;2023-02-28T02:38:08;11.75;;;7.30;;
61685;SDS011;47592;45.904;8.978;2023-02-28T02:41:26;10.35;;;7.18;;
61685;SDS011;47592;45.904;8.978;2023-02-28T02:43:56;10.23;;;6.93;;
61685;SDS011;47592;45.904;8.978;2023-02-28T02:46:41;12.18;;;7.85;;
61685;SDS011;47592;45.904;8.978;2023-02-28T02:49:09;11.75;;;7.57;;
61685;SDS011;47592;45.904;8.978;2023-02-28T02:51:38;11.70;;;7.40;;
61685;SDS011;47592;45.904;8.978;2023-02-28T02:56:36;12.85;;;8.40;;
61685;SDS011;47592;45.904;8.978;2023-02-28T02:59:06;9.55;;;6.75;;
61685;SDS011;47592;45.904;8.978;2023-02-28T03:01:34;11.15;;;7.70;;
61685;SDS011;47592;45.904;8.978;2023-02-28T03:04:01;13.40;;;8.43;;
61685;SDS011;47592;45.904;8.978;2023-02-28T03:06:30;10.90;;;7.75;;
61685;SDS011;47592;45.904;8.978;2023-02-28T03:09:00;12.00;;;8.68;;
61685;SDS011;47592;45.904;8.978;2023-02-28T03:11:26;11.40;;;7.88;;
61685;SDS011;47592;45.904;8.978;2023-02-28T03:16:46;10.13;;;7.78;;
61685;SDS011;47592;45.904;8.978;2023-02-28T03:19:23;10.90;;;7.95;;
61685;SDS011;47592;45.904;8.978;2023-02-28T03:24:49;11.38;;;8.38;;
61685;SDS011;47592;45.904;8.978;2023-02-28T03:30:36;11.88;;;8.27;;
61685;SDS011;47592;45.904;8.978;2023-02-28T03:33:13;12.10;;;8.27;;
61685;SDS011;47592;45.904;8.978;2023-02-28T03:35:42;12.20;;;8.68;;
61685;SDS011;47592;45.904;8.978;2023-02-28T03:38:13;10.95;;;7.97;;
61685;SDS011;47592;45.904;8.978;2023-02-28T03:40:45;13.02;;;8.95;;
61685;SDS011;47592;45.904;8.978;2023-02-28T03:43:15;11.13;;;7.68;;
61685;SDS011;47592;45.904;8.978;2023-02-28T03:45:44;14.32;;;8.63;;
61685;SDS011;47592;45.904;8.978;2023-02-28T03:48:31;11.27;;;8.68;;
61685;SDS011;47592;45.904;8.978;2023-02-28T03:51:01;12.02;;;8.00;;
61685;SDS011;47592;45.904;8.978;2023-02-28T03:53:28;12.75;;;8.55;;
61685;SDS011;47592;45.904;8.978;2023-02-28T04:03:42;12.75;;;8.00;;
61685;SDS011;47592;45.904;8.978;2023-02-28T04:06:08;15.05;;;8.73;;
61685;SDS011;47592;45.904;8.978;2023-02-28T04:08:40;15.52;;;8.18;;
61685;SDS011;47592;45.904;8.978;2023-02-28T04:11:06;15.05;;;8.57;;
61685;SDS011;47592;45.904;8.978;2023-02-28T04:13:38;14.07;;;7.53;;
61685;SDS011;47592;45.904;8.978;2023-02-28T04:16:06;12.55;;;7.82;;
61685;SDS011;47592;45.904;8.978;2023-02-28T04:18:40;12.40;;;8.55;;
61685;SDS011;47592;45.904;8.978;2023-02-28T04:21:08;10.95;;;7.72;;
61685;SDS011;47592;45.904;8.978;2023-02-28T04:23:33;12.45;;;8.60;;
61685;SDS011;47592;45.904;8.978;2023-02-28T04:25:59;13.10;;;8.50;;
61685;SDS011;47592;45.904;8.978;2023-02-28T04:28:24;13.27;;;8.77;;
61685;SDS011;47592;45.904;8.978;2023-02-28T04:30:57;14.32;;;9.10;;
61685;SDS011;47592;45.904;8.978;2023-02-28T04:33:23;12.82;;;8.60;;
61685;SDS011;47592;45.904;8.978;2023-02-28T04:35:53;15.00;;;9.43;;
61685;SDS011;47592;45.904;8.978;2023-02-28T04:38:27;13.45;;;9.13;;
61685;SDS011;47592;45.904;8.978;2023-02-28T04:40:53;15.32;;;9.77;;
61685;SDS011;47592;45.904;8.978;2023-02-28T04:43:18;14.20;;;9.88;;
61685;SDS011;47592;45.904;8.978;2023-02-28T04:45:43;14.15;;;9.50;;
61685;SDS011;47592;45.904;8.978;2023-02-28T04:48:09;14.43;;;9.50;;
61685;SDS011;47592;45.904;8.978;2023-02-28T04:50:34;15.60;;;9.52;;
61685;SDS011;47592;45.904;8.978;2023-02-28T04:53:00;15.20;;;9.68;;
61685;SDS011;47592;45.904;8.978;2023-02-28T04:55:25;14.90;;;10.25;;
61685;SDS011;47592;45.904;8.978;2023-02-28T04:57:50;13.90;;;9.43;;
61685;SDS011;47592;45.904;8.978;2023-02-28T05:00:16;15.05;;;10.45;;
61685;SDS011;47592;45.904;8.978;2023-02-28T05:02:42;12.98;;;9.40;;
61685;SDS011;47592;45.904;8.978;2023-02-28T05:05:07;13.93;;;9.73;;
61685;SDS011;47592;45.904;8.978;2023-02-28T05:07:33;14.23;;;9.95;;
61685;SDS011;47592;45.904;8.978;2023-02-28T05:09:58;14.90;;;9.90;;
61685;SDS011;47592;45.904;8.978;2023-02-28T05:12:24;16.60;;;10.27;;
61685;SDS011;47592;45.904;8.978;2023-02-28T05:14:49;15.15;;;10.10;;
61685;SDS011;47592;45.904;8.978;2023-02-28T05:17:15;17.27;;;10.13;;
61685;SDS011;47592;45.904;8.978;2023-02-28T05:19:40;15.18;;;10.93;;
61685;SDS011;47592;45.904;8.978;2023-02-28T05:22:10;16.48;;;10.60;;
61685;SDS011;47592;45.904;8.978;2023-02-28T05:24:39;15.77;;;10.50;;
61685;SDS011;47592;45.904;8.978;2023-02-28T05:27:04;14.38;;;10.15;;
61685;SDS011;47592;45.904;8.978;2023-02-28T05:29:30;16.58;;;11.43;;
61685;SDS011;47592;45.904;8.978;2023-02-28T05:31:55;15.60;;;10.50;;
61685;SDS011;47592;45.904;8.978;2023-02-28T05:34:20;14.30;;;10.00;;
61685;SDS011;47592;45.904;8.978;2023-02-28T05:36:46;14.77;;;9.90;;
61685;SDS011;47592;45.904;8.978;2023-02-28T05:39:11;14.23;;;9.98;;
61685;SDS011;47592;45.904;8.978;2023-02-28T05:41:37;15.38;;;10.00;;
61685;SDS011;47592;45.904;8.978;2023-02-28T05:44:07;17.55;;;10.05;;
61685;SDS011;47592;45.904;8.978;2023-02-28T05:46:32;14.77;;;9.75;;
61685;SDS011;47592;45.904;8.978;2023-02-28T05:48:57;17.80;;;10.25;;
61685;SDS011;47592;45.904;8.978;2023-02-28T05:51:25;14.90;;;9.75;;
61685;SDS011;47592;45.904;8.978;2023-02-28T05:53:50;14.93;;;10.25;;
61685;SDS011;47592;45.904;8.978;2023-02-28T05:56:16;15.00;;;9.93;;
61685;SDS011;47592;45.904;8.978;2023-02-28T05:58:41;15.88;;;9.98;;
61685;SDS011;47592;45.904;8.978;2023-02-28T06:01:24;14.30;;;9.35;;
61685;SDS011;47592;45.904;8.978;2023-02-28T06:03:55;13.95;;;9.52;;
61685;SDS011;47592;45.904;8.978;2023-02-28T06:06:21;18.23;;;10.38;;
61685;SDS011;47592;45.904;8.978;2023-02-28T06:08:46;15.65;;;9.98;;
61685;SDS011;47592;45.904;8.978;2023-02-28T06:11:12;15.40;;;9.48;;
61685;SDS011;47592;45.904;8.978;2023-02-28T06:13:37;16.33;;;9.98;;
61685;SDS011;47592;45.904;8.978;2023-02-28T06:16:02;15.13;;;9.70;;
61685;SDS011;47592;45.904;8.978;2023-02-28T06:18:28;16.08;;;9.88;;
61685;SDS011;47592;45.904;8.978;2023-02-28T06:20:54;17.05;;;10.52;;
61685;SDS011;47592;45.904;8.978;2023-02-28T06:23:20;16.05;;;9.60;;
61685;SDS011;47592;45.904;8.978;2023-02-28T06:25:46;15.35;;;10.00;;
61685;SDS011;47592;45.904;8.978;2023-02-28T06:28:12;14.52;;;9.43;;
61685;SDS011;47592;45.904;8.978;2023-02-28T06:30:37;14.52;;;9.23;;
61685;SDS011;47592;45.904;8.978;2023-02-28T06:33:03;16.38;;;10.40;;
61685;SDS011;47592;45.904;8.978;2023-02-28T06:35:29;15.05;;;9.80;;
61685;SDS011;47592;45.904;8.978;2023-02-28T06:37:54;15.35;;;9.75;;
61685;SDS011;47592;45.904;8.978;2023-02-28T06:40:20;14.80;;;10.02;;
61685;SDS011;47592;45.904;8.978;2023-02-28T06:42:45;15.20;;;10.30;;
61685;SDS011;47592;45.904;8.978;2023-02-28T06:45:11;17.15;;;9.82;;
61685;SDS011;47592;45.904;8.978;2023-02-28T06:47:37;15.00;;;9.90;;
61685;SDS011;47592;45.904;8.978;2023-02-28T06:50:03;16.02;;;10.00;;
61685;SDS011;47592;45.904;8.978;2023-02-28T06:52:29;15.70;;;10.95;;
61685;SDS011;47592;45.904;8.978;2023-02-28T06:54:55;16.55;;;9.85;;
61685;SDS011;47592;45.904;8.978;2023-02-28T06:57:26;14.52;;;9.80;;
61685;SDS011;47592;45.904;8.978;2023-02-28T06:59:55;15.88;;;10.32;;
61685;SDS011;47592;45.904;8.978;2023-02-28T07:02:21;17.38;;;10.63;;
61685;SDS011;47592;45.904;8.978;2023-02-28T07:04:46;15.35;;;10.63;;
61685;SDS011;47592;45.904;8.978;2023-02-28T07:07:11;17.13;;;11.68;;
61685;SDS011;47592;45.904;8.978;2023-02-28T07:09:37;15.82;;;10.65;;
61685;SDS011;47592;45.904;8.978;2023-02-28T07:12:02;16.70;;;10.85;;
61685;SDS011;47592;45.904;8.978;2023-02-28T07:14:28;16.70;;;11.15;;
61685;SDS011;47592;45.904;8.978;2023-02-28T07:16:53;17.90;;;11.35;;
61685;SDS011;47592;45.904;8.978;2023-02-28T07:19:18;16.95;;;11.20;;
61685;SDS011;47592;45.904;8.978;2023-02-28T07:21:44;18.05;;;11.68;;
61685;SDS011;47592;45.904;8.978;2023-02-28T07:24:10;17.05;;;11.32;;
61685;SDS011;47592;45.904;8.978;2023-02-28T07:26:35;16.83;;;10.73;;
61685;SDS011;47592;45.904;8.978;2023-02-28T07:29:01;17.35;;;11.05;;
61685;SDS011;47592;45.904;8.978;2023-02-28T07:31:27;16.88;;;10.88;;
61685;SDS011;47592;45.904;8.978;2023-02-28T07:33:52;18.75;;;11.57;;
61685;SDS011;47592;45.904;8.978;2023-02-28T07:36:19;17.23;;;11.35;;
61685;SDS011;47592;45.904;8.978;2023-02-28T07:38:45;17.80;;;11.50;;
61685;SDS011;47592;45.904;8.978;2023-02-28T07:41:18;18.08;;;11.50;;
61685;SDS011;47592;45.904;8.978;2023-02-28T07:43:45;16.63;;;11.43;;
61685;SDS011;47592;45.904;8.978;2023-02-28T07:46:12;14.70;;;10.60;;
61685;SDS011;47592;45.904;8.978;2023-02-28T07:48:42;17.33;;;11.88;;
61685;SDS011;47592;45.904;8.978;2023-02-28T07:51:08;17.58;;;11.73;;
61685;SDS011;47592;45.904;8.978;2023-02-28T07:53:34;19.77;;;11.90;;
61685;SDS011;47592;45.904;8.978;2023-02-28T07:56:00;17.05;;;11.45;;
61685;SDS011;47592;45.904;8.978;2023-02-28T07:58:27;19.25;;;11.82;;
61685;SDS011;47592;45.904;8.978;2023-02-28T08:00:53;18.55;;;11.98;;
61685;SDS011;47592;45.904;8.978;2023-02-28T08:03:19;19.65;;;12.27;;
61685;SDS011;47592;45.904;8.978;2023-02-28T08:05:45;19.10;;;12.32;;
61685;SDS011;47592;45.904;8.978;2023-02-28T08:08:12;17.25;;;11.75;;
61685;SDS011;47592;45.904;8.978;2023-02-28T08:10:38;17.92;;;12.30;;
61685;SDS011;47592;45.904;8.978;2023-02-28T08:13:03;19.13;;;12.05;;
61685;SDS011;47592;45.904;8.978;2023-02-28T08:15:29;18.83;;;11.90;;
61685;SDS011;47592;45.904;8.978;2023-02-28T08:17:54;18.15;;;11.65;;
61685;SDS011;47592;45.904;8.978;2023-02-28T08:20:21;19.13;;;12.38;;
61685;SDS011;47592;45.904;8.978;2023-02-28T08:22:47;16.73;;;11.70;;
61685;SDS011;47592;45.904;8.978;2023-02-28T08:25:12;19.52;;;12.15;;
61685;SDS011;47592;45.904;8.978;2023-02-28T08:27:38;19.83;;;11.82;;
61685;SDS011;47592;45.904;8.978;2023-02-28T08:30:03;17.00;;;11.43;;
61685;SDS011;47592;45.904;8.978;2023-02-28T08:32:29;19.73;;;12.25;;
61685;SDS011;47592;45.904;8.978;2023-02-28T08:34:55;18.45;;;12.32;;
61685;SDS011;47592;45.904;8.978;2023-02-28T08:37:20;20.58;;;13.18;;
61685;SDS011;47592;45.904;8.978;2023-02-28T08:39:46;19.15;;;12.27;;
61685;SDS011;47592;45.904;8.978;2023-02-28T08:42:11;19.15;;;12.00;;
61685;SDS011;47592;45.904;8.978;2023-02-28T08:44:36;20.98;;;13.13;;
61685;SDS011;47592;45.904;8.978;2023-02-28T08:47:02;19.52;;;11.90;;
61685;SDS011;47592;45.904;8.978;2023-02-28T08:49:27;18.08;;;12.25;;
61685;SDS011;47592;45.904;8.978;2023-02-28T08:51:53;18.92;;;12.50;;
61685;SDS011;47592;45.904;8.978;2023-02-28T08:54:20;19.50;;;11.63;;
61685;SDS011;47592;45.904;8.978;2023-02-28T08:56:46;20.33;;;12.88;;
61685;SDS011;47592;45.904;8.978;2023-02-28T08:59:14;17.80;;;11.65;;
61685;SDS011;47592;45.904;8.978;2023-02-28T09:01:40;16.50;;;11.55;;
61685;SDS011;47592;45.904;8.978;2023-02-28T09:04:08;17.38;;;12.15;;
61685;SDS011;47592;45.904;8.978;2023-02-28T09:06:35;17.98;;;12.00;;
61685;SDS011;47592;45.904;8.978;2023-02-28T09:09:01;17.70;;;11.85;;
61685;SDS011;47592;45.904;8.978;2023-02-28T09:11:28;18.70;;;12.27;;
61685;SDS011;47592;45.904;8.978;2023-02-28T09:13:55;16.98;;;11.65;;
61685;SDS011;47592;45.904;8.978;2023-02-28T09:16:20;20.08;;;13.48;;
61685;SDS011;47592;45.904;8.978;2023-02-28T09:18:46;17.33;;;11.63;;
61685;SDS011;47592;45.904;8.978;2023-02-28T09:21:13;19.42;;;12.57;;
61685;SDS011;47592;45.904;8.978;2023-02-28T09:23:40;18.67;;;11.20;;
61685;SDS011;47592;45.904;8.978;2023-02-28T09:26:07;19.73;;;12.55;;
61685;SDS011;47592;45.904;8.978;2023-02-28T09:28:33;17.08;;;11.75;;
61685;SDS011;47592;45.904;8.978;2023-02-28T09:30:58;17.42;;;11.88;;
61685;SDS011;47592;45.904;8.978;2023-02-28T09:33:25;18.73;;;12.52;;
61685;SDS011;47592;45.904;8.978;2023-02-28T09:35:56;18.02;;;12.55;;
61685;SDS011;47592;45.904;8.978;2023-02-28T09:38:23;16.40;;;11.18;;
61685;SDS011;47592;45.904;8.978;2023-02-28T09:40:49;15.07;;;10.82;;
61685;SDS011;47592;45.904;8.978;2023-02-28T09:43:17;16.02;;;10.55;;
61685;SDS011;47592;45.904;8.978;2023-02-28T09:45:55;16.48;;;10.60;;
61685;SDS011;47592;45.904;8.978;2023-02-28T09:48:27;16.10;;;10.60;;
61685;SDS011;47592;45.904;8.978;2023-02-28T09:51:12;16.83;;;10.52;;
61685;SDS011;47592;45.904;8.978;2023-02-28T09:53:45;15.15;;;10.13;;
61685;SDS011;47592;45.904;8.978;2023-02-28T09:56:12;16.33;;;10.77;;
61685;SDS011;47592;45.904;8.978;2023-02-28T09:58:51;15.88;;;10.75;;
61685;SDS011;47592;45.904;8.978;2023-02-28T10:01:23;16.65;;;10.40;;
61685;SDS011;47592;45.904;8.978;2023-02-28T10:06:20;17.48;;;10.38;;
61685;SDS011;47592;45.904;8.978;2023-02-28T10:08:52;14.18;;;9.30;;
61685;SDS011;47592;45.904;8.978;2023-02-28T10:11:20;14.07;;;9.43;;
61685;SDS011;47592;45.904;8.978;2023-02-28T10:16:18;16.20;;;10.50;;
61685;SDS011;47592;45.904;8.978;2023-02-28T10:18:47;14.45;;;10.10;;
61685;SDS011;47592;45.904;8.978;2023-02-28T10:21:23;14.98;;;9.52;;
61685;SDS011;47592;45.904;8.978;2023-02-28T10:24:02;15.43;;;10.13;;
61685;SDS011;47592;45.904;8.978;2023-02-28T10:26:39;16.23;;;9.82;;
61685;SDS011;47592;45.904;8.978;2023-02-28T10:29:07;14.30;;;9.95;;
61685;SDS011;47592;45.904;8.978;2023-02-28T10:31:33;13.73;;;8.80;;
61685;SDS011;47592;45.904;8.978;2023-02-28T10:33:58;14.07;;;9.45;;
61685;SDS011;47592;45.904;8.978;2023-02-28T10:36:24;13.38;;;9.27;;
61685;SDS011;47592;45.904;8.978;2023-02-28T10:38:50;14.63;;;9.50;;
61685;SDS011;47592;45.904;8.978;2023-02-28T10:41:17;16.35;;;9.20;;
61685;SDS011;47592;45.904;8.978;2023-02-28T10:43:53;12.88;;;8.50;;
61685;SDS011;47592;45.904;8.978;2023-02-28T10:46:38;13.40;;;9.00;;
61685;SDS011;47592;45.904;8.978;2023-02-28T10:49:06;14.70;;;9.45;;
61685;SDS011;47592;45.904;8.978;2023-02-28T10:51:38;13.98;;;9.05;;
61685;SDS011;47592;45.904;8.978;2023-02-28T10:54:05;14.23;;;9.70;;
61685;SDS011;47592;45.904;8.978;2023-02-28T10:56:31;15.90;;;10.07;;
61685;SDS011;47592;45.904;8.978;2023-02-28T10:59:22;14.25;;;9.73;;
61685;SDS011;47592;45.904;8.978;2023-02-28T11:01:51;14.90;;;9.95;;
61685;SDS011;47592;45.904;8.978;2023-02-28T11:04:19;13.95;;;9.75;;
61685;SDS011;47592;45.904;8.978;2023-02-28T11:09:24;16.30;;;10.35;;
61685;SDS011;47592;45.904;8.978;2023-02-28T11:11:57;17.17;;;11.48;;
61685;SDS011;47592;45.904;8.978;2023-02-28T11:14:26;17.85;;;10.85;;
61685;SDS011;47592;45.904;8.978;2023-02-28T11:16:53;17.55;;;11.07;;
61685;SDS011;47592;45.904;8.978;2023-02-28T11:19:55;15.60;;;10.90;;
61685;SDS011;47592;45.904;8.978;2023-02-28T11:22:17;15.27;;;10.77;;
61685;SDS011;47592;45.904;8.978;2023-02-28T11:24:45;16.27;;;11.50;;
61685;SDS011;47592;45.904;8.978;2023-02-28T11:30:59;17.48;;;10.75;;
61685;SDS011;47592;45.904;8.978;2023-02-28T11:35:57;19.05;;;11.20;;
61685;SDS011;47592;45.904;8.978;2023-02-28T11:38:34;16.20;;;11.20;;
61685;SDS011;47592;45.904;8.978;2023-02-28T11:49:11;15.60;;;11.05;;
61685;SDS011;47592;45.904;8.978;2023-02-28T11:51:48;15.32;;;10.40;;
61685;SDS011;47592;45.904;8.978;2023-02-28T11:56:54;16.10;;;11.35;;
61685;SDS011;47592;45.904;8.978;2023-02-28T12:02:22;15.60;;;10.43;;
61685;SDS011;47592;45.904;8.978;2023-02-28T12:05:05;14.90;;;10.38;;
61685;SDS011;47592;45.904;8.978;2023-02-28T12:10:26;13.77;;;9.30;;
61685;SDS011;47592;45.904;8.978;2023-02-28T12:21:45;16.58;;;9.85;;
61685;SDS011;47592;45.904;8.978;2023-02-28T12:26:40;15.13;;;9.93;;
61685;SDS011;47592;45.904;8.978;2023-02-28T12:29:12;13.80;;;8.98;;
61685;SDS011;47592;45.904;8.978;2023-02-28T12:31:47;13.77;;;8.90;;
61685;SDS011;47592;45.904;8.978;2023-02-28T12:34:18;15.13;;;9.52;;
61685;SDS011;47592;45.904;8.978;2023-02-28T12:36:46;13.45;;;8.98;;
61685;SDS011;47592;45.904;8.978;2023-02-28T12:39:19;13.18;;;9.00;;
61685;SDS011;47592;45.904;8.978;2023-02-28T12:41:53;13.83;;;9.83;;
61685;SDS011;47592;45.904;8.978;2023-02-28T12:44:33;15.95;;;9.57;;
61685;SDS011;47592;45.904;8.978;2023-02-28T12:47:02;12.07;;;8.13;;
61685;SDS011;47592;45.904;8.978;2023-02-28T12:52:01;14.60;;;10.05;;
61685;SDS011;47592;45.904;8.978;2023-02-28T12:54:35;14.95;;;9.73;;
61685;SDS011;47592;45.904;8.978;2023-02-28T12:57:08;13.75;;;9.13;;
61685;SDS011;47592;45.904;8.978;2023-02-28T13:07:53;14.23;;;9.00;;
61685;SDS011;47592;45.904;8.978;2023-02-28T13:10:43;12.27;;;8.38;;
61685;SDS011;47592;45.904;8.978;2023-02-28T13:13:18;12.18;;;8.35;;
61685;SDS011;47592;45.904;8.978;2023-02-28T13:18:43;12.77;;;8.15;;
61685;SDS011;47592;45.904;8.978;2023-02-28T13:21:23;12.13;;;8.40;;
61685;SDS011;47592;45.904;8.978;2023-02-28T13:26:20;14.05;;;8.63;;
61685;SDS011;47592;45.904;8.978;2023-02-28T13:31:24;14.70;;;8.30;;
61685;SDS011;47592;45.904;8.978;2023-02-28T13:36:30;12.90;;;8.65;;
61685;SDS011;47592;45.904;8.978;2023-02-28T13:39:00;13.60;;;8.43;;
61685;SDS011;47592;45.904;8.978;2023-02-28T13:41:47;14.13;;;8.48;;
61685;SDS011;47592;45.904;8.978;2023-02-28T13:44:14;13.25;;;8.40;;
61685;SDS011;47592;45.904;8.978;2023-02-28T13:51:50;13.35;;;8.80;;
61685;SDS011;47592;45.904;8.978;2023-02-28T13:57:04;14.20;;;8.90;;
61685;SDS011;47592;45.904;8.978;2023-02-28T14:05:13;13.70;;;8.95;;
61685;SDS011;47592;45.904;8.978;2023-02-28T14:07:47;15.23;;;9.10;;
61685;SDS011;47592;45.904;8.978;2023-02-28T14:10:28;13.70;;;9.45;;
61685;SDS011;47592;45.904;8.978;2023-02-28T14:18:14;12.57;;;8.43;;
61685;SDS011;47592;45.904;8.978;2023-02-28T14:20:41;15.73;;;9.30;;
61685;SDS011;47592;45.904;8.978;2023-02-28T14:23:13;12.70;;;8.82;;
61685;SDS011;47592;45.904;8.978;2023-02-28T14:31:06;14.13;;;9.50;;
61685;SDS011;47592;45.904;8.978;2023-02-28T14:33:57;13.68;;;9.27;;
61685;SDS011;47592;45.904;8.978;2023-02-28T14:36:35;14.18;;;9.10;;
61685;SDS011;47592;45.904;8.978;2023-02-28T14:41:55;12.60;;;8.52;;
61685;SDS011;47592;45.904;8.978;2023-02-28T14:44:24;13.77;;;8.45;;
61685;SDS011;47592;45.904;8.978;2023-02-28T14:46:55;12.45;;;8.45;;
61685;SDS011;47592;45.904;8.978;2023-02-28T14:49:29;13.13;;;8.93;;
61685;SDS011;47592;45.904;8.978;2023-02-28T14:54:34;12.75;;;8.40;;
61685;SDS011;47592;45.904;8.978;2023-02-28T14:57:03;13.10;;;8.95;;
61685;SDS011;47592;45.904;8.978;2023-02-28T14:59:30;13.32;;;8.75;;
61685;SDS011;47592;45.904;8.978;2023-02-28T15:02:16;13.13;;;8.57;;
61685;SDS011;47592;45.904;8.978;2023-02-28T15:04:43;12.88;;;8.02;;
61685;SDS011;47592;45.904;8.978;2023-02-28T15:07:17;13.60;;;8.52;;
61685;SDS011;47592;45.904;8.978;2023-02-28T15:09:42;16.05;;;9.30;;
61685;SDS011;47592;45.904;8.978;2023-02-28T15:12:07;14.60;;;8.30;;
61685;SDS011;47592;45.904;8.978;2023-02-28T15:14:38;12.95;;;8.27;;
61685;SDS011;47592;45.904;8.978;2023-02-28T15:17:08;12.82;;;8.35;;
61685;SDS011;47592;45.904;8.978;2023-02-28T15:19:37;12.98;;;8.85;;
61685;SDS011;47592;45.904;8.978;2023-02-28T15:22:06;13.17;;;8.63;;
61685;SDS011;47592;45.904;8.978;2023-02-28T15:24:44;12.40;;;8.63;;
61685;SDS011;47592;45.904;8.978;2023-02-28T15:27:21;12.95;;;8.50;;
61685;SDS011;47592;45.904;8.978;2023-02-28T15:29:49;13.88;;;8.77;;
61685;SDS011;47592;45.904;8.978;2023-02-28T15:32:26;14.52;;;9.27;;
61685;SDS011;47592;45.904;8.978;2023-02-28T15:37:48;13.10;;;8.65;;
61685;SDS011;47592;45.904;8.978;2023-02-28T15:45:43;12.80;;;8.40;;
61685;SDS011;47592;45.904;8.978;2023-02-28T15:48:15;13.73;;;9.40;;
61685;SDS011;47592;45.904;8.978;2023-02-28T15:50:41;13.40;;;8.90;;
61685;SDS011;47592;45.904;8.978;2023-02-28T15:53:17;12.27;;;7.97;;
61685;SDS011;47592;45.904;8.978;2023-02-28T15:55:52;14.05;;;9.57;;
61685;SDS011;47592;45.904;8.978;2023-02-28T15:58:19;13.15;;;8.77;;
61685;SDS011;47592;45.904;8.978;2023-02-28T16:00:58;15.18;;;9.82;;
61685;SDS011;47592;45.904;8.978;2023-02-28T16:03:49;15.07;;;9.98;;
61685;SDS011;47592;45.904;8.978;2023-02-28T16:08:48;14.10;;;9.48;;
61685;SDS011;47592;45.904;8.978;2023-02-28T16:11:16;16.35;;;9.45;;
61685;SDS011;47592;45.904;8.978;2023-02-28T16:13:41;13.80;;;9.43;;
61685;SDS011;47592;45.904;8.978;2023-02-28T16:16:07;15.50;;;9.27;;
61685;SDS011;47592;45.904;8.978;2023-02-28T16:18:32;16.67;;;11.25;;
61685;SDS011;47592;45.904;8.978;2023-02-28T16:20:58;17.85;;;11.73;;
61685;SDS011;47592;45.904;8.978;2023-02-28T16:23:23;16.48;;;11.00;;
61685;SDS011;47592;45.904;8.978;2023-02-28T16:25:48;19.08;;;12.90;;
61685;SDS011;47592;45.904;8.978;2023-02-28T16:31:02;33.95;;;20.27;;
61685;SDS011;47592;45.904;8.978;2023-02-28T16:33:29;25.63;;;16.05;;
61685;SDS011;47592;45.904;8.978;2023-02-28T16:35:56;27.45;;;16.65;;
61685;SDS011;47592;45.904;8.978;2023-02-28T16:38:21;27.10;;;15.80;;
61685;SDS011;47592;45.904;8.978;2023-02-28T16:40:48;22.65;;;14.45;;
61685;SDS011;47592;45.904;8.978;2023-02-28T16:43:15;20.00;;;11.48;;
61685;SDS011;47592;45.904;8.978;2023-02-28T16:45:43;17.02;;;11.05;;
61685;SDS011;47592;45.904;8.978;2023-02-28T16:48:17;15.98;;;10.85;;
61685;SDS011;47592;45.904;8.978;2023-02-28T16:50:43;15.40;;;10.80;;
61685;SDS011;47592;45.904;8.978;2023-02-28T16:53:11;17.05;;;11.07;;
61685;SDS011;47592;45.904;8.978;2023-02-28T16:55:36;16.83;;;11.13;;
61685;SDS011;47592;45.904;8.978;2023-02-28T16:58:02;16.92;;;10.65;;
61685;SDS011;47592;45.904;8.978;2023-02-28T17:00:28;16.15;;;10.32;;
61685;SDS011;47592;45.904;8.978;2023-02-28T17:02:55;17.35;;;11.18;;
61685;SDS011;47592;45.904;8.978;2023-02-28T17:05:21;18.02;;;10.10;;